This is the latest recevied weather packets stored in our database for station/object SQ5TM-1. If no packets are shown the sender has not sent any weather packets the latest 1 day(s).
| Time | Temp. | Humidity | Pressure | Rain* | Wind** | Luminosity | Snow |
|---|---|---|---|---|---|---|---|
| 1778098154 | 19.44° C | 58% | 994 hPa | - | - | 0 W/m² | - |
| 1778097230 | 19.44° C | 56% | 994 hPa | - | - | 0 W/m² | - |
| 1778091284 | 21.67° C | 51% | 993 hPa | - | - | 0 W/m² | - |
| 1778090360 | 22.22° C | 50% | 993 hPa | - | - | 0 W/m² | - |
| 1778089435 | 22.78° C | 49% | 993 hPa | - | - | 0 W/m² | - |
| 1778088511 | 22.78° C | 49% | 993 hPa | - | - | 0 W/m² | - |
| 1778087586 | 23.33° C | 47% | 993 hPa | - | - | 0 W/m² | - |
| 1778085739 | 23.33° C | 46% | 993 hPa | - | - | 0 W/m² | - |
| 1778081596 | 26.11° C | 42% | 993 hPa | - | - | 0 W/m² | - |
| 1778080781 | 26.11° C | 42% | 993 hPa | - | - | 0 W/m² | - |
| 1778077834 | 27.78° C | 39% | 993 hPa | - | - | 0 W/m² | - |
| 1778075986 | 27.22° C | 40% | 993 hPa | - | - | 0 W/m² | - |
| 1778067666 | 29.44° C | 37% | 993 hPa | - | - | 0 W/m² | - |
| 1778065817 | 25.56° C | 41% | 993 hPa | - | - | 0 W/m² | - |
| 1778062120 | 23.33° C | 45% | 993 hPa | - | - | 0 W/m² | - |
| 1778061196 | 22.22° C | 45% | 993 hPa | - | - | 0 W/m² | - |
| 1778060905 | 22.22° C | 44% | 993 hPa | - | - | 0 W/m² | - |
| 1778057207 | 22.78° C | 41% | 993 hPa | - | - | 0 W/m² | - |
| 1778055358 | 21.67° C | 44% | 993 hPa | - | - | 0 W/m² | - |
| 1778054434 | 21.11° C | 45% | 993 hPa | - | - | 0 W/m² | - |
| 1778052585 | 20.56° C | 47% | 993 hPa | - | - | 0 W/m² | - |
| 1778051661 | 20° C | 48% | 993 hPa | - | - | 0 W/m² | - |
| 1778050736 | 19.44° C | 49% | 993 hPa | - | - | 0 W/m² | - |
| 1778047963 | 16.11° C | 59% | 993 hPa | - | - | 0 W/m² | - |
| 1778047038 | 15.56° C | 61% | 994 hPa | - | - | 0 W/m² | - |
* Rain since midnight (hover to see other rain measurements)
** Current wind speed in m/s (hover to see current wind gust speed)